createdAt,value
2018-07-30T00:00:24.840Z,1007.68
2018-07-30T00:01:24.841Z,1007.68
2018-07-30T00:02:24.807Z,1007.68
2018-07-30T00:03:24.794Z,1007.71
2018-07-30T00:04:24.802Z,1007.70
2018-07-30T00:05:24.785Z,1007.71
2018-07-30T00:06:24.814Z,1007.78
2018-07-30T00:07:24.753Z,1007.72
2018-07-30T00:08:24.746Z,1007.73
2018-07-30T00:09:24.729Z,1007.71
2018-07-30T00:10:24.722Z,1007.71
2018-07-30T00:11:24.731Z,1007.69
2018-07-30T00:12:24.724Z,1007.70
2018-07-30T00:13:24.700Z,1007.74
2018-07-30T00:14:24.674Z,1007.73
2018-07-30T00:15:24.671Z,1007.73
2018-07-30T00:16:24.677Z,1007.74
2018-07-30T00:17:24.655Z,1007.74
2018-07-30T00:18:24.646Z,1007.70
2018-07-30T00:19:24.620Z,1007.76
2018-07-30T00:20:24.611Z,1007.78
2018-07-30T00:21:24.659Z,1007.73
2018-07-30T00:22:24.592Z,1007.73
2018-07-30T00:23:24.602Z,1007.75
2018-07-30T00:24:24.581Z,1007.75
2018-07-30T00:25:24.554Z,1007.72
2018-07-30T00:26:24.567Z,1007.74
2018-07-30T00:27:24.584Z,1007.76
2018-07-30T00:28:24.522Z,1007.75
2018-07-30T00:29:24.512Z,1007.73
2018-07-30T00:30:24.608Z,1007.75
2018-07-30T00:31:24.544Z,1007.73
2018-07-30T00:32:25.265Z,1007.76
2018-07-30T00:33:24.786Z,1007.77
2018-07-30T00:34:24.455Z,1007.76
2018-07-30T00:35:24.445Z,1007.77
2018-07-30T00:36:24.458Z,1007.80
2018-07-30T00:37:24.489Z,1007.81
2018-07-30T00:38:24.412Z,1007.83
2018-07-30T00:39:24.398Z,1007.82
2018-07-30T00:40:24.449Z,1007.85
2018-07-30T00:41:24.414Z,1007.84
2018-07-30T00:42:24.370Z,1007.83
2018-07-30T00:43:24.353Z,1007.81
2018-07-30T00:44:24.343Z,1007.82
2018-07-30T00:45:24.364Z,1007.83
2018-07-30T00:46:24.355Z,1007.80
2018-07-30T00:47:24.309Z,1007.79
2018-07-30T00:48:24.305Z,1007.81
2018-07-30T00:49:24.288Z,1007.77
2018-07-30T00:50:24.304Z,1007.80
2018-07-30T00:51:24.313Z,1007.77
2018-07-30T00:52:24.260Z,1007.76
2018-07-30T00:53:24.253Z,1007.79
2018-07-30T00:54:24.267Z,1007.80
2018-07-30T00:55:24.237Z,1007.75
2018-07-30T00:56:24.241Z,1007.74
2018-07-30T00:57:24.252Z,1007.78
2018-07-30T00:58:24.189Z,1007.80
2018-07-30T00:59:24.180Z,1007.87
2018-07-30T01:00:24.254Z,1007.81
2018-07-30T01:01:24.181Z,1007.83
2018-07-30T01:02:24.149Z,1007.82
2018-07-30T01:03:24.160Z,1007.84
2018-07-30T01:04:24.122Z,1007.80
2018-07-30T01:05:24.183Z,1007.83
2018-07-30T01:06:24.127Z,1007.82
2018-07-30T01:07:24.091Z,1007.85
2018-07-30T01:08:24.095Z,1007.85
2018-07-30T01:09:24.067Z,1007.89
2018-07-30T01:10:24.057Z,1007.84
2018-07-30T01:11:24.099Z,1007.86
2018-07-30T01:12:24.038Z,1007.89
2018-07-30T01:13:24.038Z,1007.90
2018-07-30T01:14:24.079Z,1007.93
2018-07-30T01:15:24.005Z,1007.86
2018-07-30T01:16:24.016Z,1007.91
2018-07-30T01:17:23.982Z,1007.90
2018-07-30T01:18:24.019Z,1007.94
2018-07-30T01:19:23.958Z,1007.90
2018-07-30T01:20:23.947Z,1007.87
2018-07-30T01:21:23.958Z,1007.88
2018-07-30T01:22:23.953Z,1007.89
2018-07-30T01:23:23.917Z,1007.91
2018-07-30T01:24:23.925Z,1007.91
2018-07-30T01:25:23.891Z,1007.88
2018-07-30T01:26:23.917Z,1007.89
2018-07-30T01:27:23.869Z,1007.88
2018-07-30T01:28:23.858Z,1007.92
2018-07-30T01:29:23.848Z,1007.90
2018-07-30T01:30:23.854Z,1007.88
2018-07-30T01:31:23.880Z,1007.88
2018-07-30T01:32:23.816Z,1007.84
2018-07-30T01:33:23.802Z,1007.85
2018-07-30T01:34:23.795Z,1007.80
2018-07-30T01:35:23.780Z,1007.82
2018-07-30T01:36:23.814Z,1007.84
2018-07-30T01:37:23.873Z,1007.78
2018-07-30T01:38:23.765Z,1007.80
2018-07-30T01:39:23.741Z,1007.77
2018-07-30T01:40:23.726Z,1007.76
2018-07-30T01:41:23.792Z,1007.79
2018-07-30T01:42:23.711Z,1007.77
2018-07-30T01:43:23.716Z,1007.75
2018-07-30T01:44:23.686Z,1007.78
2018-07-30T01:45:23.677Z,1007.77
2018-07-30T01:46:23.710Z,1007.73
2018-07-30T01:47:23.669Z,1007.75
2018-07-30T01:48:23.649Z,1007.77
2018-07-30T01:49:23.665Z,1007.80
2018-07-30T01:50:23.617Z,1007.77
2018-07-30T01:51:23.637Z,1007.77
2018-07-30T01:52:23.593Z,1007.79
2018-07-30T01:53:23.588Z,1007.77
2018-07-30T01:54:23.575Z,1007.76
2018-07-30T01:55:23.671Z,1007.79
2018-07-30T01:56:23.577Z,1007.79
2018-07-30T01:57:23.538Z,1007.79
2018-07-30T01:58:23.528Z,1007.74
2018-07-30T01:59:23.541Z,1007.79
2018-07-30T02:00:23.506Z,1007.76
2018-07-30T02:01:23.524Z,1007.78
2018-07-30T02:02:23.493Z,1007.76
2018-07-30T02:03:23.490Z,1007.78
2018-07-30T02:04:23.469Z,1007.77
2018-07-30T02:05:23.472Z,1007.73
2018-07-30T02:06:23.493Z,1007.75
2018-07-30T02:07:23.427Z,1007.75
2018-07-30T02:08:23.488Z,1007.78
2018-07-30T02:09:23.405Z,1007.78
2018-07-30T02:10:23.416Z,1007.81
2018-07-30T02:11:23.428Z,1007.82
2018-07-30T02:12:23.389Z,1007.81
2018-07-30T02:13:23.373Z,1007.84
2018-07-30T02:14:23.381Z,1007.82
2018-07-30T02:15:23.340Z,1007.82
2018-07-30T02:16:23.409Z,1007.82
2018-07-30T02:17:23.325Z,1007.85
2018-07-30T02:18:23.307Z,1007.86
2018-07-30T02:19:23.386Z,1007.84
2018-07-30T02:20:23.287Z,1007.88
2018-07-30T02:21:23.346Z,1007.87
2018-07-30T02:22:23.286Z,1007.87
2018-07-30T02:23:23.249Z,1007.87
2018-07-30T02:24:23.239Z,1007.87
2018-07-30T02:25:23.282Z,1007.88
2018-07-30T02:26:23.242Z,1007.86
2018-07-30T02:27:23.210Z,1007.89
2018-07-30T02:28:23.220Z,1007.87
2018-07-30T02:29:23.182Z,1007.90
2018-07-30T02:30:23.172Z,1007.85
2018-07-30T02:31:23.226Z,1007.89
2018-07-30T02:32:23.149Z,1007.91
2018-07-30T02:33:23.137Z,1007.89
2018-07-30T02:34:23.140Z,1007.94
2018-07-30T02:35:23.163Z,1007.94
2018-07-30T02:36:23.263Z,1007.94
2018-07-30T02:37:23.095Z,1007.97
2018-07-30T02:38:23.309Z,1008.00
2018-07-30T02:39:23.079Z,1007.95
2018-07-30T02:40:23.064Z,1008.00
2018-07-30T02:41:23.105Z,1007.99
2018-07-30T02:42:23.061Z,1007.95
2018-07-30T02:43:23.029Z,1007.98
2018-07-30T02:44:23.037Z,1007.95
2018-07-30T02:45:23.050Z,1007.97
2018-07-30T02:46:23.025Z,1007.99
2018-07-30T02:47:22.985Z,1008.00
2018-07-30T02:48:23.023Z,1007.97
2018-07-30T02:49:23.107Z,1008.03
2018-07-30T02:50:22.951Z,1008.07
2018-07-30T02:51:22.998Z,1008.04
2018-07-30T02:52:22.926Z,1008.01
2018-07-30T02:53:22.921Z,1008.01
2018-07-30T02:54:22.949Z,1007.99
2018-07-30T02:55:22.899Z,1008.01
2018-07-30T02:56:22.910Z,1008.01
2018-07-30T02:57:22.912Z,1008.00
2018-07-30T02:58:22.871Z,1008.02
2018-07-30T02:59:22.856Z,1008.03
2018-07-30T03:00:22.877Z,1008.01
2018-07-30T03:01:22.854Z,1008.05
2018-07-30T03:02:22.819Z,1008.05
2018-07-30T03:03:22.845Z,1008.04
2018-07-30T03:04:22.804Z,1008.04
2018-07-30T03:05:22.819Z,1008.05
2018-07-30T03:06:22.816Z,1008.03
2018-07-30T03:07:22.766Z,1008.03
2018-07-30T03:08:22.800Z,1008.05
2018-07-30T03:09:22.747Z,1008.08
2018-07-30T03:10:22.737Z,1008.02
2018-07-30T03:11:22.773Z,1008.01
2018-07-30T03:12:22.710Z,1008.03
2018-07-30T03:13:22.702Z,1008.06
2018-07-30T03:14:22.686Z,1008.06
2018-07-30T03:15:22.675Z,1008.12
2018-07-30T03:16:22.717Z,1008.10
2018-07-30T03:17:22.652Z,1008.10
2018-07-30T03:18:22.649Z,1008.11
2018-07-30T03:19:22.633Z,1008.07
2018-07-30T03:20:22.622Z,1008.10
2018-07-30T03:21:22.662Z,1008.11
2018-07-30T03:22:22.628Z,1008.08
2018-07-30T03:23:22.592Z,1008.10
2018-07-30T03:24:22.577Z,1008.11
2018-07-30T03:25:22.563Z,1008.12
2018-07-30T03:26:22.578Z,1008.07
2018-07-30T03:27:22.596Z,1008.02
2018-07-30T03:28:22.998Z,1008.07
2018-07-30T03:29:22.520Z,1008.02
2018-07-30T03:30:22.518Z,1007.99
2018-07-30T03:31:22.583Z,1008.03
2018-07-30T03:32:22.492Z,1008.06
2018-07-30T03:33:22.477Z,1008.04
2018-07-30T03:34:22.518Z,1008.07
2018-07-30T03:35:22.459Z,1008.07
2018-07-30T03:36:22.473Z,1008.12
2018-07-30T03:37:22.448Z,1008.11
2018-07-30T03:38:22.428Z,1008.15
2018-07-30T03:39:22.455Z,1008.18
2018-07-30T03:40:22.414Z,1008.18
2018-07-30T03:41:22.424Z,1008.18
2018-07-30T03:42:22.481Z,1008.20
2018-07-30T03:43:22.411Z,1008.17
2018-07-30T03:44:22.371Z,1008.24
2018-07-30T03:45:22.376Z,1008.18
2018-07-30T03:46:22.399Z,1008.21
2018-07-30T03:47:22.330Z,1008.15
2018-07-30T03:48:22.319Z,1008.21
2018-07-30T03:49:22.308Z,1008.25
2018-07-30T03:50:22.295Z,1008.21
2018-07-30T03:51:22.313Z,1008.23
2018-07-30T03:52:22.304Z,1008.17
2018-07-30T03:53:22.277Z,1008.25
2018-07-30T03:54:22.281Z,1008.29
2018-07-30T03:55:22.249Z,1008.27
2018-07-30T03:56:22.306Z,1008.29
2018-07-30T03:57:22.299Z,1008.31
2018-07-30T03:58:22.214Z,1008.34
2018-07-30T03:59:22.198Z,1008.33
2018-07-30T04:00:22.311Z,1008.33
2018-07-30T04:01:22.212Z,1008.36
2018-07-30T04:02:22.170Z,1008.37
2018-07-30T04:03:22.178Z,1008.36
2018-07-30T04:04:22.144Z,1008.36
2018-07-30T04:05:22.134Z,1008.34
2018-07-30T04:06:22.164Z,1008.36
2018-07-30T04:07:22.119Z,1008.36
2018-07-30T04:08:22.399Z,1008.41
2018-07-30T04:09:22.099Z,1008.41
2018-07-30T04:10:22.081Z,1008.38
2018-07-30T04:11:22.096Z,1008.42
2018-07-30T04:12:22.101Z,1008.40
2018-07-30T04:13:22.046Z,1008.41
2018-07-30T04:14:22.040Z,1008.41
2018-07-30T04:15:22.056Z,1008.45
2018-07-30T04:16:22.041Z,1008.45
2018-07-30T04:17:22.027Z,1008.49
2018-07-30T04:18:22.713Z,1008.48
2018-07-30T04:19:22.006Z,1008.47
2018-07-30T04:20:21.971Z,1008.50
2018-07-30T04:21:21.998Z,1008.52
2018-07-30T04:22:21.950Z,1008.48
2018-07-30T04:23:21.944Z,1008.51
2018-07-30T04:24:21.928Z,1008.53
2018-07-30T04:25:21.918Z,1008.52
2018-07-30T04:26:21.981Z,1008.55
2018-07-30T04:27:21.899Z,1008.58
2018-07-30T04:28:21.887Z,1008.60
2018-07-30T04:29:21.907Z,1008.62
2018-07-30T04:30:21.896Z,1008.63
2018-07-30T04:31:21.883Z,1008.58
2018-07-30T04:32:21.841Z,1008.62
2018-07-30T04:33:21.832Z,1008.63
2018-07-30T04:34:21.835Z,1008.60
2018-07-30T04:35:22.458Z,1008.59
2018-07-30T04:36:21.855Z,1008.58
2018-07-30T04:37:21.786Z,1008.54
2018-07-30T04:38:21.778Z,1008.59
2018-07-30T04:39:21.805Z,1008.59
2018-07-30T04:40:21.776Z,1008.58
2018-07-30T04:41:21.772Z,1008.57
2018-07-30T04:42:21.748Z,1008.55
2018-07-30T04:43:21.731Z,1008.55
2018-07-30T04:44:21.776Z,1008.57
2018-07-30T04:45:21.732Z,1008.58
2018-07-30T04:46:21.749Z,1008.56
2018-07-30T04:47:21.744Z,1008.57
2018-07-30T04:48:21.664Z,1008.58
2018-07-30T04:49:21.690Z,1008.57
2018-07-30T04:50:21.697Z,1008.62
2018-07-30T04:51:21.686Z,1008.63
2018-07-30T04:52:21.621Z,1008.62
2018-07-30T04:53:21.608Z,1008.67
2018-07-30T04:54:21.602Z,1008.64
2018-07-30T04:55:21.586Z,1008.71
2018-07-30T04:56:21.617Z,1008.59
2018-07-30T04:57:21.562Z,1008.64
2018-07-30T04:58:21.555Z,1008.63
2018-07-30T04:59:21.549Z,1008.59
2018-07-30T05:00:21.531Z,1008.59
2018-07-30T05:01:21.547Z,1008.58
2018-07-30T05:02:21.599Z,1008.60
2018-07-30T05:03:21.518Z,1008.51
2018-07-30T05:04:21.497Z,1008.53
2018-07-30T05:05:21.481Z,1008.54
2018-07-30T05:06:21.541Z,1008.53
2018-07-30T05:07:21.454Z,1008.57
2018-07-30T05:08:21.445Z,1008.59
2018-07-30T05:09:21.445Z,1008.59
2018-07-30T05:10:21.433Z,1008.57
2018-07-30T05:11:21.500Z,1008.56
2018-07-30T05:12:21.404Z,1008.56
2018-07-30T05:13:21.394Z,1008.59
2018-07-30T05:14:21.378Z,1008.55
2018-07-30T05:15:21.402Z,1008.61
2018-07-30T05:16:21.390Z,1008.60
2018-07-30T05:17:21.346Z,1008.62
2018-07-30T05:18:21.337Z,1008.62
2018-07-30T05:19:21.394Z,1008.60
2018-07-30T05:20:21.313Z,1008.61
2018-07-30T05:21:21.339Z,1008.65
2018-07-30T05:22:21.291Z,1008.65
2018-07-30T05:23:21.278Z,1008.64
2018-07-30T05:24:21.278Z,1008.67
2018-07-30T05:25:21.257Z,1008.66
2018-07-30T05:26:21.273Z,1008.66
2018-07-30T05:27:21.259Z,1008.65
2018-07-30T05:28:21.222Z,1008.59
2018-07-30T05:29:21.213Z,1008.66
2018-07-30T05:30:21.200Z,1008.65
2018-07-30T05:31:21.220Z,1008.63
2018-07-30T05:32:21.178Z,1008.63
2018-07-30T05:33:21.191Z,1008.66
2018-07-30T05:34:21.156Z,1008.62
2018-07-30T05:35:21.161Z,1008.65
2018-07-30T05:36:21.185Z,1008.62
2018-07-30T05:37:21.174Z,1008.62
2018-07-30T05:38:21.113Z,1008.64
2018-07-30T05:39:21.134Z,1008.60
2018-07-30T05:40:21.092Z,1008.63
2018-07-30T05:41:21.108Z,1008.60
2018-07-30T05:42:21.069Z,1008.61
2018-07-30T05:43:21.063Z,1008.61
2018-07-30T05:44:21.059Z,1008.59
2018-07-30T05:45:21.063Z,1008.59
2018-07-30T05:46:21.132Z,1008.59
2018-07-30T05:47:21.055Z,1008.62
2018-07-30T05:48:21.008Z,1008.61
2018-07-30T05:49:21.046Z,1008.60
2018-07-30T05:50:21.000Z,1008.60
2018-07-30T05:51:21.001Z,1008.62
2018-07-30T05:52:20.964Z,1008.58
2018-07-30T05:53:20.990Z,1008.59
2018-07-30T05:54:20.953Z,1008.58
2018-07-30T05:55:20.931Z,1008.62
2018-07-30T05:56:20.922Z,1008.59
2018-07-30T05:57:20.934Z,1008.60
2018-07-30T05:58:20.926Z,1008.59
2018-07-30T05:59:20.945Z,1008.62
2018-07-30T06:00:20.877Z,1008.56
2018-07-30T06:01:20.864Z,1008.60
2018-07-30T06:02:20.919Z,1008.61
2018-07-30T06:03:20.842Z,1008.60
2018-07-30T06:04:20.861Z,1008.57
2018-07-30T06:05:20.885Z,1008.57
2018-07-30T06:06:20.816Z,1008.57
2018-07-30T06:07:20.852Z,1008.61
2018-07-30T06:08:20.789Z,1008.61
2018-07-30T06:09:20.779Z,1008.60
2018-07-30T06:10:20.782Z,1008.62
2018-07-30T06:11:20.758Z,1008.58
2018-07-30T06:12:20.777Z,1008.61
2018-07-30T06:13:20.759Z,1008.62
2018-07-30T06:14:20.754Z,1008.67
2018-07-30T06:15:20.720Z,1008.62
2018-07-30T06:16:20.757Z,1008.65
2018-07-30T06:17:20.693Z,1008.64
2018-07-30T06:18:20.718Z,1008.65
2018-07-30T06:19:20.672Z,1008.67
2018-07-30T06:20:20.668Z,1008.73
2018-07-30T06:21:20.648Z,1008.72
2018-07-30T06:22:20.646Z,1008.77
2018-07-30T06:23:20.690Z,1008.75
2018-07-30T06:24:20.616Z,1008.74
2018-07-30T06:25:20.621Z,1008.69
2018-07-30T06:26:20.622Z,1008.67
2018-07-30T06:27:20.619Z,1008.66
2018-07-30T06:28:20.645Z,1008.68
2018-07-30T06:29:20.615Z,1008.68
2018-07-30T06:30:20.550Z,1008.65
2018-07-30T06:31:20.544Z,1008.65
2018-07-30T06:32:20.530Z,1008.67
2018-07-30T06:33:20.545Z,1008.72
2018-07-30T06:34:20.506Z,1008.72
2018-07-30T06:35:20.511Z,1008.72
2018-07-30T06:36:20.534Z,1008.66
2018-07-30T06:37:20.485Z,1008.72
2018-07-30T06:38:20.535Z,1008.72
2018-07-30T06:39:20.459Z,1008.69
2018-07-30T06:40:20.450Z,1008.72
2018-07-30T06:41:20.602Z,1008.77
2018-07-30T06:42:20.420Z,1008.74
2018-07-30T06:43:20.446Z,1008.73
2018-07-30T06:44:20.423Z,1008.75
2018-07-30T06:45:20.397Z,1008.78
2018-07-30T06:46:20.391Z,1008.76
2018-07-30T06:47:20.368Z,1008.82
2018-07-30T06:48:20.401Z,1008.76
2018-07-30T06:49:20.347Z,1008.76
2018-07-30T06:50:20.337Z,1008.77
2018-07-30T06:51:20.406Z,1008.79
2018-07-30T06:52:20.393Z,1008.79
2018-07-30T06:53:20.433Z,1008.85
2018-07-30T06:54:20.322Z,1008.83
2018-07-30T06:55:20.286Z,1008.85
2018-07-30T06:56:20.291Z,1008.85
2018-07-30T06:57:20.260Z,1008.83
2018-07-30T06:58:20.310Z,1008.87
2018-07-30T06:59:20.257Z,1008.86
2018-07-30T07:00:20.231Z,1008.87
2018-07-30T07:01:20.216Z,1008.85
2018-07-30T07:02:20.207Z,1008.87
2018-07-30T07:03:20.289Z,1008.85
2018-07-30T07:04:20.220Z,1008.89
2018-07-30T07:05:20.175Z,1008.91
2018-07-30T07:06:20.167Z,1008.88
2018-07-30T07:07:20.154Z,1008.99
2018-07-30T07:08:20.198Z,1008.96
2018-07-30T07:09:20.138Z,1008.92
2018-07-30T07:10:20.133Z,1008.92
2018-07-30T07:11:20.137Z,1008.98
2018-07-30T07:12:20.103Z,1008.99
2018-07-30T07:13:20.117Z,1009.00
2018-07-30T07:14:20.092Z,1008.98
2018-07-30T07:15:20.071Z,1008.96
2018-07-30T07:16:20.058Z,1009.00
2018-07-30T07:17:20.071Z,1008.97
2018-07-30T07:18:20.066Z,1008.98
2018-07-30T07:19:20.024Z,1008.98
2018-07-30T07:20:20.014Z,1009.00
2018-07-30T07:21:20.116Z,1009.06
2018-07-30T07:22:20.002Z,1009.00
2018-07-30T07:23:20.030Z,1008.99
2018-07-30T07:24:19.972Z,1008.99
2018-07-30T07:25:19.965Z,1008.98
2018-07-30T07:26:19.960Z,1008.99
2018-07-30T07:27:19.950Z,1009.02
2018-07-30T07:28:19.978Z,1009.04
2018-07-30T07:29:19.931Z,1009.03
2018-07-30T07:30:19.911Z,1009.05
2018-07-30T07:31:20.271Z,1009.04
2018-07-30T07:32:19.892Z,1009.05
2018-07-30T07:33:19.934Z,1009.11
2018-07-30T07:34:19.932Z,1009.10
2018-07-30T07:35:19.854Z,1009.09
2018-07-30T07:36:19.851Z,1009.12
2018-07-30T07:37:20.894Z,1009.11
2018-07-30T07:38:20.178Z,1009.12
2018-07-30T07:39:19.842Z,1009.07
2018-07-30T07:40:19.809Z,1009.11
2018-07-30T07:41:19.799Z,1009.14
2018-07-30T07:42:19.793Z,1009.11
2018-07-30T07:43:19.803Z,1009.13
2018-07-30T07:44:19.774Z,1009.16
2018-07-30T07:45:19.766Z,1009.12
2018-07-30T07:46:19.759Z,1009.13
2018-07-30T07:47:19.738Z,1009.16
2018-07-30T07:48:19.816Z,1009.19
2018-07-30T07:49:19.720Z,1009.19
2018-07-30T07:50:19.919Z,1009.23
2018-07-30T07:51:19.686Z,1009.25
2018-07-30T07:52:19.680Z,1009.22
2018-07-30T07:53:19.737Z,1009.18
2018-07-30T07:54:19.676Z,1009.20
2018-07-30T07:55:19.642Z,1009.22
2018-07-30T07:56:19.679Z,1009.25
2018-07-30T07:57:19.621Z,1009.23
2018-07-30T07:58:19.617Z,1009.27
2018-07-30T07:59:19.630Z,1009.24
2018-07-30T08:00:19.591Z,1009.23
2018-07-30T08:01:19.586Z,1009.21
2018-07-30T08:02:19.593Z,1009.22
2018-07-30T08:03:19.556Z,1009.18
2018-07-30T08:04:19.632Z,1009.17
2018-07-30T08:05:19.535Z,1009.15
2018-07-30T08:06:19.583Z,1009.15
2018-07-30T08:07:19.536Z,1009.14
2018-07-30T08:08:19.514Z,1009.13
2018-07-30T08:09:19.522Z,1009.16
2018-07-30T08:10:19.486Z,1009.15
2018-07-30T08:11:19.482Z,1009.14
2018-07-30T08:12:19.549Z,1009.09
2018-07-30T08:13:19.488Z,1009.08
2018-07-30T08:14:19.466Z,1009.07
2018-07-30T08:15:19.445Z,1009.06
2018-07-30T08:16:19.493Z,1009.10
2018-07-30T08:17:19.440Z,1009.10
2018-07-30T08:18:19.407Z,1009.10
2018-07-30T08:19:19.449Z,1009.10
2018-07-30T08:20:19.495Z,1009.16
2018-07-30T08:21:19.383Z,1009.12
2018-07-30T08:22:19.471Z,1009.12
2018-07-30T08:23:19.492Z,1009.15
2018-07-30T08:24:19.375Z,1009.14
2018-07-30T08:25:19.394Z,1009.09
2018-07-30T08:26:19.317Z,1009.08
2018-07-30T08:27:19.310Z,1009.03
2018-07-30T08:28:19.302Z,1009.07
2018-07-30T08:29:19.346Z,1009.07
2018-07-30T08:30:19.320Z,1009.11
2018-07-30T08:31:19.288Z,1009.04
2018-07-30T08:32:19.256Z,1009.08
2018-07-30T08:33:19.253Z,1009.09
2018-07-30T08:34:19.299Z,1009.04
2018-07-30T08:35:19.226Z,1009.04
2018-07-30T08:36:19.225Z,1009.06
2018-07-30T08:37:19.207Z,1009.06
2018-07-30T08:38:19.195Z,1009.05
2018-07-30T08:39:19.293Z,1009.05
2018-07-30T08:40:19.181Z,1009.08
2018-07-30T08:41:19.163Z,1009.05
2018-07-30T08:42:19.215Z,1009.03
2018-07-30T08:43:19.147Z,1009.04
2018-07-30T08:44:19.181Z,1009.04
2018-07-30T08:45:19.118Z,1009.05
2018-07-30T08:46:19.117Z,1009.07
2018-07-30T08:47:19.100Z,1009.05
2018-07-30T08:48:19.092Z,1009.04
2018-07-30T08:49:19.103Z,1009.05
2018-07-30T08:50:19.097Z,1009.04
2018-07-30T08:51:19.083Z,1009.01
2018-07-30T08:52:19.048Z,1009.04
2018-07-30T08:53:19.044Z,1009.01
2018-07-30T08:54:19.050Z,1009.04
2018-07-30T08:55:19.026Z,1009.02
2018-07-30T08:56:19.061Z,1009.05
2018-07-30T08:57:19.032Z,1009.05
2018-07-30T08:58:18.990Z,1009.05
2018-07-30T08:59:18.996Z,1009.07
2018-07-30T09:00:18.972Z,1009.09
2018-07-30T09:01:18.956Z,1009.06
2018-07-30T09:02:18.944Z,1009.07
2018-07-30T09:03:18.965Z,1009.02
2018-07-30T09:04:19.031Z,1009.02
2018-07-30T09:05:18.910Z,1008.97
2018-07-30T09:06:18.926Z,1008.99
2018-07-30T09:07:18.908Z,1009.00
2018-07-30T09:08:18.880Z,1009.00
2018-07-30T09:09:18.915Z,1008.97
2018-07-30T09:10:18.860Z,1008.96
2018-07-30T09:11:18.859Z,1008.94
2018-07-30T09:12:18.845Z,1008.92
2018-07-30T09:13:18.886Z,1008.94
2018-07-30T09:14:18.967Z,1008.93
2018-07-30T09:15:18.844Z,1008.94
2018-07-30T09:16:18.798Z,1008.88
2018-07-30T09:17:18.828Z,1008.90
2018-07-30T09:18:18.876Z,1008.89
2018-07-30T09:19:18.803Z,1008.92
2018-07-30T09:20:18.767Z,1008.88
2018-07-30T09:21:18.918Z,1008.88
2018-07-30T09:22:18.739Z,1008.91
2018-07-30T09:23:18.899Z,1008.88
2018-07-30T09:24:18.744Z,1008.91
2018-07-30T09:25:18.741Z,1008.92
2018-07-30T09:26:18.716Z,1008.90
2018-07-30T09:27:18.686Z,1008.93
2018-07-30T09:28:18.687Z,1008.93
2018-07-30T09:29:18.703Z,1008.91
2018-07-30T09:30:18.656Z,1008.86
2018-07-30T09:31:18.649Z,1008.84
2018-07-30T09:32:18.767Z,1008.80
2018-07-30T09:33:18.721Z,1008.78
2018-07-30T09:34:18.639Z,1008.82
2018-07-30T09:35:18.600Z,1008.81
2018-07-30T09:36:18.635Z,1008.81
2018-07-30T09:37:18.651Z,1008.79
2018-07-30T09:38:18.655Z,1008.81
2018-07-30T09:39:18.668Z,1008.83
2018-07-30T09:40:18.549Z,1008.81
2018-07-30T09:41:18.578Z,1008.79
2018-07-30T09:42:18.555Z,1008.80
2018-07-30T09:43:18.519Z,1008.76
2018-07-30T09:44:18.580Z,1008.75
2018-07-30T09:45:18.496Z,1008.73
2018-07-30T09:46:18.509Z,1008.71
2018-07-30T09:47:18.483Z,1008.70
2018-07-30T09:48:18.495Z,1008.69
2018-07-30T09:49:18.488Z,1008.73
2018-07-30T09:50:18.456Z,1008.66
2018-07-30T09:51:18.496Z,1008.65
2018-07-30T09:52:18.584Z,1008.62
2018-07-30T09:53:18.681Z,1008.58
2018-07-30T09:54:18.437Z,1008.61
2018-07-30T09:55:18.394Z,1008.59
2018-07-30T09:56:18.500Z,1008.58
2018-07-30T09:57:18.379Z,1008.57
2018-07-30T09:58:18.399Z,1008.66
2018-07-30T09:59:18.384Z,1008.62
2018-07-30T10:00:18.367Z,1008.69
2018-07-30T10:01:18.515Z,1008.66
2018-07-30T10:02:18.323Z,1008.64
2018-07-30T10:03:18.325Z,1008.65
2018-07-30T10:04:18.361Z,1008.65
2018-07-30T10:05:18.496Z,1008.61
2018-07-30T10:06:18.567Z,1008.61
2018-07-30T10:07:18.279Z,1008.63
2018-07-30T10:08:18.285Z,1008.62
2018-07-30T10:09:18.303Z,1008.60
2018-07-30T10:10:18.261Z,1008.56
2018-07-30T10:11:18.412Z,1008.56
2018-07-30T10:12:18.242Z,1008.59
2018-07-30T10:13:18.221Z,1008.59
2018-07-30T10:14:18.287Z,1008.61
2018-07-30T10:15:18.189Z,1008.56
2018-07-30T10:16:18.210Z,1008.55
2018-07-30T10:17:18.168Z,1008.56
2018-07-30T10:18:18.225Z,1008.51
2018-07-30T10:19:18.193Z,1008.50
2018-07-30T10:20:18.186Z,1008.48
2018-07-30T10:21:18.121Z,1008.48
2018-07-30T10:22:18.125Z,1008.50
2018-07-30T10:23:18.105Z,1008.52
2018-07-30T10:24:18.134Z,1008.48
2018-07-30T10:25:18.095Z,1008.45
2018-07-30T10:26:18.701Z,1008.50
2018-07-30T10:27:18.064Z,1008.51
2018-07-30T10:28:18.052Z,1008.53
2018-07-30T10:29:18.122Z,1008.50
2018-07-30T10:30:18.030Z,1008.50
2018-07-30T10:31:18.059Z,1008.50
2018-07-30T10:32:18.027Z,1008.54
2018-07-30T10:33:18.034Z,1008.49
2018-07-30T10:34:18.013Z,1008.47
2018-07-30T10:35:17.984Z,1008.48
2018-07-30T10:36:17.978Z,1008.46
2018-07-30T10:37:17.986Z,1008.50
2018-07-30T10:38:18.147Z,1008.46
2018-07-30T10:39:17.988Z,1008.46
2018-07-30T10:40:17.979Z,1008.44
2018-07-30T10:41:17.930Z,1008.41
2018-07-30T10:42:17.904Z,1008.38
2018-07-30T10:43:17.914Z,1008.34
2018-07-30T10:44:17.907Z,1008.31
2018-07-30T10:45:17.884Z,1008.34
2018-07-30T10:46:17.905Z,1008.32
2018-07-30T10:47:17.852Z,1008.28
2018-07-30T10:48:17.932Z,1008.27
2018-07-30T10:49:17.859Z,1008.23
2018-07-30T10:50:17.821Z,1008.27
2018-07-30T10:51:17.824Z,1008.20
2018-07-30T10:52:17.804Z,1008.20
2018-07-30T10:53:17.790Z,1008.17
2018-07-30T10:54:17.852Z,1008.20
2018-07-30T10:55:17.803Z,1008.19
2018-07-30T10:56:17.773Z,1008.19
2018-07-30T10:57:17.791Z,1008.21
2018-07-30T10:58:17.817Z,1008.19
2018-07-30T10:59:17.761Z,1008.20
2018-07-30T11:00:17.744Z,1008.20
2018-07-30T11:01:17.742Z,1008.15
2018-07-30T11:02:17.711Z,1008.14
2018-07-30T11:03:17.725Z,1008.15
2018-07-30T11:04:17.699Z,1008.16
2018-07-30T11:05:17.695Z,1008.19
2018-07-30T11:06:17.659Z,1008.15
2018-07-30T11:07:17.650Z,1008.10
2018-07-30T11:08:17.660Z,1008.10
2018-07-30T11:09:17.652Z,1008.06
2018-07-30T11:10:17.620Z,1008.00
2018-07-30T11:11:17.613Z,1008.43
2018-07-30T11:12:17.593Z,1008.56
2018-07-30T11:13:17.583Z,1008.59
2018-07-30T11:14:17.606Z,1008.64
2018-07-30T11:15:17.605Z,1008.68
2018-07-30T11:16:18.044Z,1008.44
2018-07-30T11:17:17.560Z,1008.17
2018-07-30T11:18:17.543Z,1008.44
2018-07-30T11:19:17.562Z,1008.09
2018-07-30T11:20:17.516Z,1008.65
2018-07-30T11:21:17.518Z,1008.63
2018-07-30T11:22:17.496Z,1008.38
2018-07-30T11:23:17.486Z,1008.61
2018-07-30T11:24:17.499Z,1008.63
2018-07-30T11:25:17.499Z,1008.62
2018-07-30T11:26:17.459Z,1008.69
2018-07-30T11:27:17.470Z,1008.69
2018-07-30T11:28:17.546Z,1008.63
2018-07-30T11:29:17.480Z,1008.68
2018-07-30T11:30:17.426Z,1008.64
2018-07-30T11:31:17.414Z,1008.64
2018-07-30T11:32:17.412Z,1008.06
2018-07-30T11:33:17.643Z,1008.12
2018-07-30T11:34:17.418Z,1008.16
2018-07-30T11:35:17.378Z,1008.01
2018-07-30T11:36:17.377Z,1008.04
2018-07-30T11:37:17.365Z,1008.30
2018-07-30T11:38:17.420Z,1008.31
2018-07-30T11:39:17.376Z,1008.61
2018-07-30T11:40:17.333Z,1008.56
2018-07-30T11:41:17.327Z,1008.15
2018-07-30T11:42:17.317Z,1008.57
2018-07-30T11:43:17.313Z,1008.19
2018-07-30T11:44:17.409Z,1008.60
2018-07-30T11:45:17.288Z,1008.62
2018-07-30T11:46:17.287Z,1008.49
2018-07-30T11:47:17.277Z,1008.53
2018-07-30T11:48:17.303Z,1008.55
2018-07-30T11:49:17.430Z,1008.53
2018-07-30T11:50:17.250Z,1008.52
2018-07-30T11:51:17.259Z,1008.58
2018-07-30T11:52:17.349Z,1008.57
2018-07-30T11:53:17.239Z,1008.58
2018-07-30T11:54:17.314Z,1008.54
2018-07-30T11:55:17.220Z,1008.57
2018-07-30T11:56:17.201Z,1008.51
2018-07-30T11:57:17.962Z,1008.51
2018-07-30T11:58:18.409Z,1008.53
2018-07-30T11:59:17.512Z,1008.52
2018-07-30T12:00:17.486Z,1008.55
2018-07-30T12:01:17.365Z,1007.93
2018-07-30T12:02:17.226Z,1008.59
2018-07-30T12:03:17.176Z,1008.51
2018-07-30T12:04:17.141Z,1008.49
2018-07-30T12:05:17.339Z,1008.41